ZGU weather

Gaua Island Airport
Gaua Island, Torba, Vanuatu

Public forecast

Using degrees Celsius for public forecast. Weather courtesy of forecast.io.

Closest aviation weather report (METAR) to Gaua Island Airport

Closest report is Sola Airport, 22.2 nm (41.1 km) N. Retrieved 2019/12/10 03:00 UTC (2 hours ago):

NVSC 100300Z 12005KT 9999 BKN020 30/25 Q10090

Closest aviation forecast (TAF) to Gaua Island Airport

Closest forecast is Sola Airport, 22.2 nm (41.1 km) N. Retrieved 2019-12-10 00:21 UTC (5 hours ago):

TAF NVSC 092220Z 1000/1024 13014KT 9999 BKN020 INTER 0918/0924 8000 SHRA BKN018 OVC040